Data for 07/05/2018

Time Sea-Level Adjusted Pressure Absolute Pressure Temperature Relative Humidity Dew Point   
(mb) (inHg) (mb) (inHg) (C) (F) (%) (C) (F)
00:05 1028 30.36 857 25.31 15.5 59.9 47 4.2 39.6
00:10 1028 30.36 857 25.31 15.4 59.8 47 4.3 39.7
00:15 1028 30.36 857 25.31 15.4 59.8 47 4.4 39.9
00:20 1028 30.36 857 25.31 15.4 59.6 48 4.4 39.9
00:25 1028 30.36 857 25.31 15.3 59.5 48 4.5 40.1
00:30 1028 30.36 857 25.31 15.1 59.3 48 4.4 40
00:35 1028 30.36 857 25.31 15.1 59.2 49 4.5 40.1
00:40 1028 30.36 857 25.31 15.1 59.1 49 4.4 39.9
00:45 1028 30.36 857 25.31 15 59 49 4.5 40
00:50 1028 30.36 857 25.31 14.9 58.8 49 4.4 39.9
00:55 1028 30.36 857 25.31 14.9 58.8 49 4.4 39.8
01:00 1028 30.36 857 25.31 14.9 58.8 49 4.3 39.8
01:05 1028 30.36 857 25.31 14.9 58.7 49 4.4 39.9
01:10 1028 30.36 857 25.31 14.8 58.7 49 4.2 39.6
01:15 1028 30.36 857 25.31 14.8 58.6 48 4.1 39.4
01:20 1028 30.36 857 25.31 14.8 58.6 48 4.1 39.4
01:25 1028 30.36 857 25.31 14.8 58.6 49 4.1 39.4
01:30 1028 30.36 857 25.31 14.7 58.5 48 4 39.3
01:35 1028 30.36 857 25.31 14.6 58.3 49 4.2 39.5
01:40 1028 30.36 857 25.31 14.5 58 50 4.3 39.7
01:45 1028 30.36 857 25.31 14.4 57.9 50 4.2 39.6
01:50 1028 30.36 857 25.31 14.3 57.7 50 4.2 39.5
01:55 1028 30.36 857 25.31 14.3 57.7 51 4.3 39.8
02:00 1028 30.36 857 25.31 14.1 57.4 51 4.2 39.6
02:05 1028 30.36 857 25.31 14.1 57.4 51 4.2 39.6
02:10 1028 30.36 857 25.31 14.1 57.4 52 4.4 39.9
02:15 1028 30.36 857 25.31 14 57.1 52 4.3 39.7
02:20 1028 30.36 857 25.31 13.9 57.1 52 4.2 39.6
02:25 1028 30.36 857 25.31 13.9 57 52 4.3 39.8
02:30 1028 30.36 857 25.31 13.9 57 52 4.3 39.8
02:35 1028 30.36 857 25.31 13.8 56.9 52 4.3 39.8
02:40 1028 30.36 857 25.31 13.8 56.8 53 4.4 40
02:45 1028 30.36 857 25.31 13.7 56.7 53 4.3 39.8
02:50 1028 30.36 857 25.31 13.7 56.6 53 4.4 40
02:55 1028 30.36 857 25.31 13.6 56.5 53 4.4 39.9
03:00 1028 30.36 857 25.31 13.6 56.4 54 4.5 40.2
03:05 1028 30.36 857 25.31 13.5 56.2 54 4.3 39.8
03:10 1028 30.36 857 25.31 13.5 56.3 54 4.4 39.8
03:15 1028 30.36 857 25.31 13.5 56.2 54 4.5 40.1
03:20 1028 30.36 857 25.31 13.4 56.1 54 4.4 39.8
03:25 1028 30.36 857 25.31 13.4 56.2 54 4.4 40
03:30 1028 30.36 857 25.31 13.4 56 55 4.5 40.2
03:35 1028 30.36 857 25.31 13.3 56 55 4.5 40.2
03:40 1028 30.36 857 25.31 13.3 55.9 55 4.6 40.2
03:45 1028 30.36 857 25.31 13.2 55.8 55 4.5 40
03:50 1028 30.36 857 25.31 13.3 55.9 55 4.5 40.1
03:55 1028 30.36 857 25.31 13.3 55.9 54 4.4 39.9
04:00 1028 30.36 857 25.31 13.3 56 55 4.4 40
04:05 1028 30.36 858 25.34 13.3 55.9 55 4.5 40
04:10 1028 30.36 858 25.34 13.3 55.9 55 4.5 40.2
04:15 1028 30.36 858 25.34 13.2 55.7 55 4.5 40.1
04:20 1028 30.36 858 25.34 13.2 55.7 56 4.5 40.1
04:25 1028 30.36 858 25.34 13.1 55.6 56 4.6 40.3
04:30 1028 30.36 858 25.34 13 55.4 57 4.7 40.4
04:35 1029 30.39 858 25.34 12.9 55.2 57 4.8 40.6
04:40 1029 30.39 858 25.34 12.8 55 58 4.8 40.6
04:45 1028 30.36 858 25.34 12.7 54.8 58 4.7 40.5
04:50 1029 30.39 858 25.34 12.6 54.7 58 4.7 40.4
04:55 1029 30.39 858 25.34 12.6 54.7 59 4.8 40.6
05:00 1029 30.39 858 25.34 12.5 54.6 59 4.8 40.7
05:05 1029 30.39 858 25.34 12.5 54.5 60 4.9 40.8
05:10 1029 30.39 858 25.34 12.4 54.3 60 4.8 40.6
05:15 1029 30.39 858 25.34 12.4 54.4 59 4.8 40.6
05:20 1029 30.39 858 25.34 12.5 54.5 59 4.7 40.5
05:25 1029 30.39 858 25.34 12.5 54.4 59 4.8 40.7
05:30 1029 30.39 858 25.34 12.4 54.2 60 4.8 40.6
05:35 1029 30.39 858 25.34 12.4 54.2 59 4.7 40.4
05:40 1029 30.39 858 25.34 12.4 54.3 59 4.7 40.5
05:45 1029 30.39 858 25.34 12.4 54.4 59 4.7 40.4
05:50 1029 30.39 858 25.34 12.4 54.4 59 4.7 40.4
05:55 1029 30.39 858 25.34 12.5 54.5 58 4.6 40.3
06:00 1029 30.39 858 25.34 12.6 54.6 58 4.6 40.3
06:05 1029 30.39 858 25.34 12.7 54.8 58 4.6 40.3
06:10 1029 30.39 858 25.34 12.8 55 57 4.6 40.3
06:15 1029 30.39 858 25.34 12.8 55.1 57 4.6 40.3
06:20 1029 30.39 858 25.34 12.9 55.2 57 4.6 40.2
06:25 1029 30.39 858 25.34 13 55.4 57 4.7 40.4
06:30 1029 30.39 858 25.34 13 55.4 57 4.8 40.6
06:35 1029 30.39 858 25.34 13 55.5 57 4.7 40.4
06:40 1029 30.39 858 25.34 13.1 55.6 56 4.7 40.4
06:45 1029 30.39 858 25.34 13.2 55.7 56 4.7 40.5
06:50 1029 30.39 858 25.34 13.2 55.8 56 4.8 40.6
06:55 1029 30.39 858 25.34 13.3 55.9 56 4.8 40.6
07:00 1029 30.39 858 25.34 13.2 55.8 56 4.7 40.4
07:05 1029 30.39 858 25.34 13.3 55.9 56 4.8 40.7
07:10 1029 30.39 858 25.34 13.3 56 56 4.7 40.5
07:15 1029 30.39 858 25.34 13.5 56.3 55 4.6 40.3
07:20 1029 30.39 858 25.34 13.7 56.6 55 4.8 40.6
07:25 1029 30.39 858 25.34 13.8 56.9 54 4.7 40.4
07:30 1029 30.39 858 25.34 14 57.2 53 4.7 40.4
07:35 1029 30.39 858 25.34 14.1 57.4 52 4.6 40.3
07:40 1029 30.39 858 25.34 14.3 57.8 52 4.8 40.7
07:45 1029 30.39 858 25.34 14.5 58 52 4.8 40.7
07:50 1029 30.39 858 25.34 14.5 58.2 52 5 40.9
07:55 1029 30.39 858 25.34 14.6 58.2 51 4.8 40.6
08:00 1029 30.39 858 25.34 14.7 58.4 52 5 41
08:05 1029 30.39 858 25.34 14.8 58.7 51 4.8 40.7
08:10 1029 30.39 858 25.34 15 58.9 51 5 40.9
08:15 1029 30.39 858 25.34 15.1 59.2 51 5 41
08:20 1029 30.39 858 25.34 15.2 59.3 51 5.1 41.2
08:25 1029 30.39 858 25.34 15.2 59.4 51 5.2 41.3
08:30 1029 30.39 858 25.34 15.3 59.5 51 5.2 41.3
08:35 1029 30.39 858 25.34 15.7 60.2 50 5.4 41.8
08:40 1029 30.39 858 25.34 15.8 60.5 49 5.4 41.7
08:45 1029 30.39 858 25.34 16 60.8 50 5.6 42.1
08:50 1029 30.39 858 25.34 16 60.8 50 5.8 42.5
08:55 1029 30.39 858 25.34 16 60.9 49 5.4 41.7
09:00 1029 30.39 858 25.34 16.2 61.2 49 5.6 42.1
09:05 1029 30.39 858 25.34 16.4 61.6 48 5.5 41.8
09:10 1029 30.39 858 25.34 16.5 61.7 47 5.3 41.6
09:15 1029 30.39 858 25.34 16.6 62 47 5.4 41.8
09:20 1029 30.39 858 25.34 16.8 62.2 47 5.5 41.9
09:25 1029 30.39 858 25.34 17.1 62.8 46 5.6 42
09:30 1029 30.39 858 25.34 17.2 62.9 46 5.7 42.3
09:35 1029 30.39 858 25.34 17.4 63.4 47 6 42.7
09:40 1029 30.39 858 25.34 17.7 63.8 47 6.3 43.4
09:45 1029 30.39 858 25.34 17.3 63.2 50 6.8 44.3
09:50 1029 30.39 858 25.34 17 62.5 50 6.6 44
09:55 1029 30.39 858 25.34 16.9 62.4 49 6.3 43.3
10:00 1029 30.39 858 25.34 17.7 63.8 46 6.2 43.1
10:05 1029 30.39 858 25.34 17.7 63.8 49 7 44.7
10:10 1029 30.39 858 25.34 17.7 63.9 47 6.4 43.5
10:15 1029 30.39 858 25.34 17.3 63.2 49 6.7 44
10:20 1029 30.39 858 25.34 17.7 63.9 48 6.7 44
10:25 1029 30.39 858 25.34 18.2 64.7 46 6.5 43.7
10:30 1029 30.39 858 25.34 18.6 65.6 47 7.3 45.1
10:35 1029 30.39 858 25.34 18.2 64.8 47 7 44.5
10:40 1029 30.39 858 25.34 18.7 65.7 44 6.5 43.7
10:45 1029 30.39 858 25.34 18.9 66.1 47 7.4 45.3
10:50 1029 30.39 858 25.34 19.1 66.3 45 6.9 44.5
10:55 1029 30.39 858 25.34 18.6 65.6 48 7.4 45.3
11:00 1029 30.39 858 25.34 18.4 65.1 48 7.2 44.9
11:05 1029 30.39 858 25.34 18.9 66.1 46 7.1 44.8
11:10 1029 30.39 858 25.34 19.6 67.3 43 6.8 44.2
11:15 1029 30.39 858 25.34 19.6 67.3 45 7.5 45.6
11:20 1028 30.36 858 25.34 19.9 67.8 44 7.5 45.5
11:25 1028 30.36 858 25.34 20.4 68.7 43 7.5 45.4
11:30 1028 30.36 858 25.34 20.9 69.7 41 7.3 45.1
11:35 1028 30.36 858 25.34 21 69.8 41 7.6 45.6
11:40 1028 30.36 858 25.34 21.2 70.2 42 8 46.4
11:45 1028 30.36 857 25.31 21.4 70.4 41 7.8 46.1
11:50 1028 30.36 857 25.31 21.1 70 42 8 46.3
11:55 1028 30.36 857 25.31 21.9 71.4 40 7.7 45.9
12:00 1028 30.36 857 25.31 22.7 72.8 41 9 48.1
12:05 1028 30.36 857 25.31 22.3 72.1 39 7.8 46.1
12:10 1028 30.36 857 25.31 21.8 71.2 42 8.5 47.3
12:15 1028 30.36 857 25.31 21.5 70.7 43 8.7 47.7
12:20 1028 30.36 857 25.31 21.6 70.9 44 9.1 48.4
12:25 1028 30.36 857 25.31 21.3 70.4 45 8.9 48
12:30 1028 30.36 857 25.31 21.5 70.6 44 8.8 47.8
12:35 1028 30.36 857 25.31 22.5 72.5 40 8.4 47.1
12:40 1028 30.36 857 25.31 22.6 72.7 41 8.9 48
12:45 1028 30.36 857 25.31 23.3 73.9 38 8.4 47.2
12:50 1028 30.36 857 25.31 23.6 74.5 38 8.7 47.6
12:55 1028 30.36 857 25.31 23.7 74.7 39 9.2 48.6
13:00 1028 30.36 857 25.31 23.7 74.7 38 8.6 47.5
13:05 1028 30.36 857 25.31 24.1 75.4 38 9.2 48.5
13:10 1028 30.36 857 25.31 23.5 74.2 41 9.7 49.5
13:15 1028 30.36 857 25.31 23.3 73.9 40 9 48.2
13:20 1027 30.33 857 25.31 23.4 74 41 9.6 49.2
13:25 1027 30.33 857 25.31 24.1 75.3 38 9.1 48.4
13:30 1027 30.33 857 25.31 24.4 76 38 9.5 49.1
13:35 1027 30.33 857 25.31 24.4 76 39 9.9 49.8
13:40 1027 30.33 856 25.28 24.5 76 38 9.3 48.8
13:45 1027 30.33 856 25.28 25.1 77.2 37 9.6 49.3
13:50 1027 30.33 856 25.28 25.3 77.5 39 10.5 50.8
13:55 1027 30.33 856 25.28 25.3 77.6 37 10 50
14:00 1027 30.33 856 25.28 25.4 77.7 36 9.6 49.4
14:05 1027 30.33 856 25.28 25.1 77.1 36 9.2 48.6
14:10 1027 30.33 856 25.28 25.3 77.5 34 8.7 47.7
14:15 1027 30.33 856 25.28 25 76.9 34 8.3 46.9
14:20 1026 30.3 856 25.28 25.2 77.3 35 9.1 48.4
14:25 1026 30.3 856 25.28 25.5 77.9 35 9.1 48.5
14:30 1026 30.3 856 25.28 25.9 78.5 34 8.9 47.9
14:35 1026 30.3 856 25.28 26.3 79.3 31 8 46.3
14:40 1026 30.3 856 25.28 26.4 79.6 31 8.1 46.5
14:45 1026 30.3 855 25.25 26.4 79.5 30 7.8 46.1
14:50 1026 30.3 856 25.28 26.4 79.6 30 7.7 45.9
14:55 1026 30.3 855 25.25 26.6 80 29 7.2 45
15:00 1026 30.3 855 25.25 26.6 79.9 30 7.7 45.9
15:05 1026 30.3 855 25.25 27.2 81 31 8.7 47.6
15:10 1026 30.3 855 25.25 27.3 81.1 30 8.6 47.4
15:15 1026 30.3 855 25.25 27.4 81.3 30 8.5 47.3
15:20 1026 30.3 855 25.25 27.6 81.7 29 8 46.5
15:25 1026 30.3 855 25.25 27.6 81.6 29 8.2 46.8
15:30 1026 30.3 855 25.25 26.9 80.4 30 7.9 46.3
15:35 1026 30.3 855 25.25 26.3 79.3 31 8 46.4
15:40 1026 30.3 855 25.25 26.8 80.3 31 8.7 47.7
15:45 1026 30.3 855 25.25 26.9 80.5 31 8.9 47.9
15:50 1026 30.3 855 25.25 26.6 79.9 31 8.6 47.4
15:55 1026 30.3 855 25.25 27.2 81 32 9.5 49.1
16:00 1026 30.3 855 25.25 27.1 80.7 32 9.1 48.4
16:05 1026 30.3 855 25.25 26.6 80 34 9.6 49.2
16:10 1026 30.3 855 25.25 26.6 79.9 32 8.6 47.5
16:15 1026 30.3 855 25.25 26.5 79.7 32 8.9 48
16:20 1025 30.27 855 25.25 26.5 79.7 31 8.5 47.2
16:25 1025 30.27 855 25.25 26.8 80.2 31 8.7 47.7
16:30 1025 30.27 855 25.25 26.7 80 30 8.1 46.7
16:35 1025 30.27 855 25.25 26.6 79.9 30 8.1 46.7
16:40 1025 30.27 854 25.22 26.5 79.7 32 8.7 47.6
16:45 1025 30.27 854 25.22 26.5 79.8 32 8.7 47.7
16:50 1025 30.27 854 25.22 26.6 79.9 35 10 50.1
16:55 1025 30.27 854 25.22 26.2 79.2 35 9.8 49.6
17:00 1025 30.27 854 25.22 25.9 78.7 37 10.2 50.4
17:05 1025 30.27 854 25.22 25.8 78.5 36 9.7 49.5
17:10 1025 30.27 854 25.22 25.8 78.5 37 10.4 50.8
17:15 1025 30.27 854 25.22 25.6 78.2 38 10.6 51
17:20 1025 30.27 854 25.22 25.6 78 39 10.8 51.4
17:25 1025 30.27 854 25.22 25.5 77.9 39 10.8 51.5
17:30 1025 30.27 854 25.22 25.5 77.9 40 11.3 52.4
17:35 1025 30.27 854 25.22 25.4 77.6 41 11.4 52.5
17:40 1025 30.27 854 25.22 25.5 77.8 42 11.7 53.1
17:45 1025 30.27 854 25.22 25.4 77.7 44 12.3 54.2
17:50 1025 30.27 854 25.22 25.1 77.2 43 11.9 53.5
17:55 1025 30.27 854 25.22 25.1 77.2 44 12.3 54.1
18:00 1025 30.27 854 25.22 25.2 77.3 44 12.1 53.9
18:05 1025 30.27 854 25.22 25.2 77.4 43 11.9 53.5
18:10 1025 30.27 854 25.22 25.1 77.1 43 11.9 53.5
18:15 1025 30.27 854 25.22 24.9 76.9 43 11.8 53.2
18:20 1025 30.27 854 25.22 24.9 76.8 44 12.1 53.7
18:25 1025 30.27 854 25.22 24.7 76.4 44 11.9 53.4
18:30 1025 30.27 854 25.22 24.7 76.5 44 12 53.6
18:35 1025 30.27 854 25.22 24.7 76.4 45 12.1 53.8
18:40 1025 30.27 854 25.22 24.6 76.2 45 12.1 53.8
18:45 1025 30.27 854 25.22 24.6 76.3 45 12.1 53.7
18:50 1025 30.27 854 25.22 24.4 76 45 12.1 53.7
18:55 1025 30.27 854 25.22 24.4 75.9 46 12.1 53.7
19:00 1025 30.27 854 25.22 24.4 75.8 46 12.1 53.7
19:05 1025 30.27 854 25.22 24.3 75.8 46 12 53.6
19:10 1025 30.27 854 25.22 24.2 75.6 45 11.8 53.2
19:15 1025 30.27 854 25.22 24.3 75.8 45 11.9 53.4
19:20 1025 30.27 854 25.22 24.4 75.9 45 12 53.6
19:25 1025 30.27 854 25.22 24.3 75.8 46 12.1 53.7
19:30 1025 30.27 854 25.22 24.2 75.5 46 12.1 53.7
19:35 1025 30.27 854 25.22 24 75.1 47 12.1 53.8
19:40 1025 30.27 854 25.22 24 75.2 47 12.1 53.8
19:45 1025 30.27 854 25.22 24 75.1 48 12.3 54.1
19:50 1025 30.27 854 25.22 23.9 74.9 48 12.4 54.3
19:55 1025 30.27 854 25.22 23.8 74.8 48 12.2 53.9
20:00 1025 30.27 854 25.22 23.7 74.7 48 12.1 53.9
20:05 1025 30.27 854 25.22 23.7 74.6 47 12 53.5
20:10 1025 30.27 854 25.22 23.6 74.5 48 12.1 53.8
20:15 1025 30.27 854 25.22 23.5 74.2 49 12.3 54.1
20:20 1025 30.27 854 25.22 23.3 74 49 12.3 54.1
20:25 1025 30.27 854 25.22 23.2 73.7 50 12.2 54
20:30 1025 30.27 854 25.22 23 73.4 50 12.3 54.2
20:35 1025 30.27 854 25.22 23 73.3 50 12.3 54.1
20:40 1025 30.27 854 25.22 22.9 73.2 51 12.3 54.2
20:45 1025 30.27 854 25.22 22.7 72.9 52 12.4 54.4
20:50 1025 30.27 854 25.22 22.6 72.7 52 12.4 54.4
20:55 1025 30.27 854 25.22 22.5 72.4 52 12.4 54.4
21:00 1025 30.27 854 25.22 22.3 72.2 53 12.4 54.3
21:05 1025 30.27 855 25.25 22.3 72.1 53 12.4 54.3
21:10 1025 30.27 854 25.22 22.2 72 53 12.4 54.3
21:15 1025 30.27 854 25.22 22.1 71.7 54 12.4 54.3
21:20 1025 30.27 855 25.25 22 71.5 54 12.4 54.3
21:25 1025 30.27 855 25.25 21.9 71.4 54 12.3 54.2
21:30 1025 30.27 855 25.25 21.8 71.3 54 12.3 54.2
21:35 1026 30.3 855 25.25 21.8 71.3 54 12.3 54.1
21:40 1026 30.3 855 25.25 21.8 71.2 54 12.2 54
21:45 1026 30.3 855 25.25 21.7 71.1 54 12.3 54.1
21:50 1026 30.3 855 25.25 21.7 71 55 12.2 54
21:55 1026 30.3 855 25.25 21.6 70.8 55 12.3 54.2
22:00 1026 30.3 855 25.25 21.5 70.7 55 12.3 54.1
22:05 1026 30.3 855 25.25 21.5 70.6 55 12.3 54.1
22:10 1026 30.3 855 25.25 21.5 70.6 55 12.2 54
22:15 1026 30.3 855 25.25 21.4 70.6 56 12.3 54.2
22:20 1026 30.3 855 25.25 21.4 70.5 56 12.3 54.1
22:25 1026 30.3 855 25.25 21.4 70.5 56 12.4 54.2
22:30 1026 30.3 855 25.25 21.4 70.6 56 12.4 54.3
22:35 1026 30.3 855 25.25 21.3 70.4 57 12.5 54.5
22:40 1026 30.3 855 25.25 21.3 70.3 57 12.6 54.7
22:45 1026 30.3 855 25.25 21.3 70.4 57 12.7 54.8
22:50 1026 30.3 855 25.25 21.3 70.3 58 12.8 55
22:55 1026 30.3 855 25.25 21.3 70.3 58 12.9 55.1
23:00 1026 30.3 855 25.25 21.2 70.2 59 12.9 55.3
23:05 1026 30.3 855 25.25 21.1 70.1 60 13.1 55.6
23:10 1026 30.3 855 25.25 21 69.8 60 13 55.4
23:15 1026 30.3 855 25.25 20.8 69.4 61 13.1 55.5
23:20 1026 30.3 855 25.25 20.7 69.3 62 13.2 55.8
23:25 1026 30.3 855 25.25 20.7 69.2 62 13.3 56
23:30 1026 30.3 855 25.25 20.8 69.5 62 13.4 56
23:35 1026 30.3 855 25.25 20.9 69.7 62 13.5 56.3
23:40 1026 30.3 855 25.25 20.9 69.5 62 13.5 56.3
23:45 1026 30.3 855 25.25 20.8 69.5 63 13.5 56.4
23:50 1026 30.3 855 25.25 20.9 69.6 62 13.6 56.4
23:55 1026 30.3 855 25.25 20.9 69.7 63 13.7 56.6
24:00 1026 30.3 855 25.25 20.9 69.7 62 13.6 56.4